createdAt,value
2019-05-03T00:02:28.196Z,66.61
2019-05-03T00:05:21.954Z,66.21
2019-05-03T00:07:53.673Z,65.29
2019-05-03T00:10:23.314Z,65.21
2019-05-03T00:12:52.907Z,65.08
2019-05-03T00:15:47.850Z,65.81
2019-05-03T00:18:17.510Z,64.76
2019-05-03T00:20:47.017Z,65.25
2019-05-03T00:23:16.566Z,65.23
2019-05-03T00:25:46.127Z,65.86
2019-05-03T00:28:15.822Z,66.06
2019-05-03T00:30:45.771Z,66.55
2019-05-03T00:33:15.298Z,66.09
2019-05-03T00:35:56.225Z,65.37
2019-05-03T00:38:25.757Z,63.26
2019-05-03T00:40:55.376Z,65.62
2019-05-03T00:43:24.938Z,65.67
2019-05-03T00:45:54.466Z,65.12
2019-05-03T00:48:23.934Z,66.22
2019-05-03T00:50:53.490Z,66.21
2019-05-03T00:53:22.999Z,65.55
2019-05-03T00:55:52.675Z,65.86
2019-05-03T00:58:22.561Z,65.21
2019-05-03T01:00:52.553Z,65.14
2019-05-03T01:03:22.391Z,63.86
2019-05-03T01:05:52.963Z,66.22
2019-05-03T01:08:22.629Z,66.64
2019-05-03T01:10:52.188Z,65.20
2019-05-03T01:13:21.972Z,66.75
2019-05-03T01:16:06.354Z,64.43
2019-05-03T01:18:36.039Z,64.86
2019-05-03T01:21:05.555Z,65.68
2019-05-03T01:23:35.073Z,65.50
2019-05-03T01:26:04.787Z,66.01
2019-05-03T01:28:34.279Z,66.48
2019-05-03T01:31:03.830Z,66.68
2019-05-03T01:33:33.415Z,65.41
2019-05-03T01:36:02.977Z,65.11
2019-05-03T01:38:32.579Z,66.64
2019-05-03T01:41:02.122Z,66.32
2019-05-03T01:43:31.953Z,67.06
2019-05-03T01:46:02.738Z,69.24
2019-05-03T01:48:38.971Z,68.02
2019-05-03T01:51:18.199Z,68.56
2019-05-03T01:53:48.450Z,69.97
2019-05-03T01:56:18.622Z,68.16
2019-05-03T01:58:48.185Z,70.42
2019-05-03T02:01:24.769Z,69.82
2019-05-03T02:04:00.475Z,71.58
2019-05-03T02:06:31.856Z,70.03
2019-05-03T02:09:01.659Z,71.38
2019-05-03T02:11:32.632Z,71.18
2019-05-03T02:14:02.256Z,71.69
2019-05-03T02:16:32.527Z,72.23
2019-05-03T02:19:02.456Z,72.78
2019-05-03T02:21:32.266Z,72.80
2019-05-03T02:24:02.608Z,73.37
2019-05-03T02:26:32.174Z,69.99
2019-05-03T02:29:01.901Z,71.92
2019-05-03T02:31:32.836Z,72.71
2019-05-03T02:34:03.520Z,72.66
2019-05-03T02:36:33.848Z,73.00
2019-05-03T02:39:05.391Z,71.97
2019-05-03T02:41:35.546Z,72.75
2019-05-03T02:44:06.294Z,73.90
2019-05-03T02:46:45.453Z,74.12
2019-05-03T02:49:21.479Z,73.07
2019-05-03T02:51:51.054Z,72.88
2019-05-03T02:54:20.577Z,74.21
2019-05-03T02:56:50.086Z,73.59
2019-05-03T02:59:19.578Z,72.27
2019-05-03T03:01:49.262Z,74.18
2019-05-03T03:04:19.026Z,73.79
2019-05-03T03:06:48.778Z,74.18
2019-05-03T03:09:20.228Z,72.76
2019-05-03T03:11:51.603Z,72.78
2019-05-03T03:14:25.420Z,74.08
2019-05-03T03:16:56.175Z,75.26
2019-05-03T03:19:27.578Z,74.47
2019-05-03T03:22:00.065Z,74.22
2019-05-03T03:24:31.102Z,74.38
2019-05-03T03:27:01.115Z,71.11
2019-05-03T03:29:31.408Z,73.29
2019-05-03T03:32:19.182Z,68.67
2019-05-03T03:35:11.138Z,72.99
2019-05-03T03:37:35.847Z,71.62
2019-05-03T03:40:06.170Z,70.71
2019-05-03T03:42:36.205Z,67.27
2019-05-03T03:45:06.386Z,70.37
2019-05-03T03:47:39.069Z,64.75
2019-05-03T03:50:08.851Z,68.06
2019-05-03T03:52:38.865Z,69.67
2019-05-03T03:55:09.950Z,68.52
2019-05-03T03:57:39.608Z,69.04
2019-05-03T04:00:09.390Z,68.20
2019-05-03T04:02:39.806Z,66.92
2019-05-03T04:05:09.475Z,71.15
2019-05-03T04:07:39.364Z,67.68
2019-05-03T04:10:09.199Z,71.00
2019-05-03T04:12:39.814Z,70.63
2019-05-03T04:15:28.215Z,69.64
2019-05-03T04:18:17.374Z,71.15
2019-05-03T04:20:47.015Z,72.27
2019-05-03T04:23:16.686Z,72.24
2019-05-03T04:25:46.275Z,71.96
2019-05-03T04:28:16.428Z,73.22
2019-05-03T04:30:46.177Z,71.50
2019-05-03T04:33:16.115Z,71.35
2019-05-03T04:35:46.492Z,69.11
2019-05-03T04:38:16.544Z,70.78
2019-05-03T04:40:46.130Z,70.23
2019-05-03T04:43:16.676Z,70.84
2019-05-03T04:46:01.324Z,69.76
2019-05-03T04:48:30.938Z,70.16
2019-05-03T04:51:00.449Z,72.10
2019-05-03T04:53:31.111Z,72.93
2019-05-03T04:56:00.785Z,71.73
2019-05-03T04:58:30.372Z,70.78
2019-05-03T05:00:59.999Z,69.49
2019-05-03T05:03:29.516Z,70.67
2019-05-03T05:05:59.619Z,70.63
2019-05-03T05:08:29.206Z,72.83
2019-05-03T05:10:58.755Z,73.05
2019-05-03T05:13:28.560Z,72.65
2019-05-03T05:15:58.096Z,73.35
2019-05-03T05:18:41.029Z,72.33
2019-05-03T05:21:32.923Z,72.91
2019-05-03T05:24:05.554Z,72.45
2019-05-03T05:26:57.427Z,74.10
2019-05-03T05:29:29.117Z,74.96
2019-05-03T05:31:58.688Z,74.75
2019-05-03T05:34:28.369Z,73.38
2019-05-03T05:36:57.892Z,73.38
2019-05-03T05:39:27.587Z,74.86
2019-05-03T05:41:57.091Z,73.58
2019-05-03T05:44:26.843Z,73.74
2019-05-03T05:47:34.569Z,75.32
2019-05-03T05:50:30.205Z,75.94
2019-05-03T05:52:59.743Z,76.73
2019-05-03T05:55:51.533Z,76.74
2019-05-03T05:58:39.850Z,77.10
2019-05-03T06:01:14.745Z,76.81
2019-05-03T06:03:44.889Z,76.98
2019-05-03T06:06:19.945Z,75.89
2019-05-03T06:09:05.063Z,76.06
2019-05-03T06:11:40.312Z,76.21
2019-05-03T06:14:15.598Z,75.40
2019-05-03T06:17:10.123Z,75.07
2019-05-03T06:19:47.431Z,75.82
2019-05-03T06:22:35.953Z,74.54
2019-05-03T06:25:16.563Z,73.10
2019-05-03T06:27:46.782Z,68.23
2019-05-03T06:30:27.391Z,72.54
2019-05-03T06:32:56.935Z,75.84
2019-05-03T06:35:26.568Z,74.97
2019-05-03T06:37:56.152Z,74.87
2019-05-03T06:40:26.174Z,75.70
2019-05-03T06:43:08.352Z,74.82
2019-05-03T06:45:27.595Z,73.23
2019-05-03T06:47:57.144Z,73.78
2019-05-03T06:50:28.960Z,73.68
2019-05-03T06:52:59.797Z,72.13
2019-05-03T06:55:29.351Z,68.01
2019-05-03T06:57:58.925Z,71.10
2019-05-03T07:00:50.245Z,70.91
2019-05-03T07:03:44.824Z,60.33
2019-05-03T07:06:34.422Z,68.71
2019-05-03T07:09:09.500Z,66.35
2019-05-03T07:11:39.219Z,70.91
2019-05-03T07:14:08.805Z,70.50
2019-05-03T07:16:38.331Z,71.09
2019-05-03T07:19:08.025Z,71.62
2019-05-03T07:21:37.733Z,71.94
2019-05-03T07:24:07.233Z,67.67
2019-05-03T07:26:36.915Z,70.23
2019-05-03T07:29:07.417Z,69.99
2019-05-03T07:31:36.934Z,69.77
2019-05-03T07:34:06.575Z,60.54
2019-05-03T07:36:36.167Z,66.80
2019-05-03T07:39:07.655Z,54.49
2019-05-03T07:41:37.338Z,54.22
2019-05-03T07:44:08.722Z,50.60
2019-05-03T07:46:38.294Z,51.97
2019-05-03T07:49:08.132Z,51.40
2019-05-03T07:51:37.757Z,60.04
2019-05-03T07:54:07.361Z,51.91
2019-05-03T07:56:48.169Z,63.72
2019-05-03T07:59:18.132Z,51.70
2019-05-03T08:01:50.442Z,51.21
2019-05-03T08:04:20.134Z,49.63
2019-05-03T08:06:49.770Z,52.95
2019-05-03T08:09:19.434Z,49.27
2019-05-03T08:11:49.203Z,49.73
2019-05-03T08:14:19.089Z,48.81
2019-05-03T08:16:48.732Z,48.48
2019-05-03T08:19:18.368Z,48.19
2019-05-03T08:21:47.898Z,53.13
2019-05-03T08:24:17.492Z,48.93
2019-05-03T08:26:47.087Z,49.80
2019-05-03T08:29:19.365Z,48.35
2019-05-03T08:32:00.896Z,50.69
2019-05-03T08:34:41.156Z,47.85
2019-05-03T08:37:16.969Z,47.29
2019-05-03T08:39:46.674Z,48.35
2019-05-03T08:42:25.498Z,47.05
2019-05-03T08:44:55.439Z,48.26
2019-05-03T08:47:25.409Z,46.95
2019-05-03T08:49:55.473Z,46.91
2019-05-03T08:52:25.123Z,48.15
2019-05-03T08:54:55.152Z,46.72
2019-05-03T08:57:25.311Z,46.73
2019-05-03T08:59:55.268Z,46.79
2019-05-03T09:02:25.748Z,46.75
2019-05-03T09:04:55.587Z,47.02
2019-05-03T09:07:58.561Z,46.73
2019-05-03T09:10:47.705Z,46.94
2019-05-03T09:13:18.875Z,47.86
2019-05-03T09:15:48.819Z,46.52
2019-05-03T09:18:18.427Z,47.07
2019-05-03T09:20:48.057Z,47.25
2019-05-03T09:23:17.855Z,48.79
2019-05-03T09:25:47.633Z,47.55
2019-05-03T09:28:19.726Z,47.97
2019-05-03T09:30:49.237Z,48.68
2019-05-03T09:33:18.948Z,48.83
2019-05-03T09:35:49.382Z,46.39
2019-05-03T09:38:18.959Z,46.76
2019-05-03T09:40:48.568Z,46.85
2019-05-03T09:43:18.084Z,48.84
2019-05-03T09:45:47.621Z,47.36
2019-05-03T09:48:17.254Z,46.99
2019-05-03T09:50:46.775Z,47.69
2019-05-03T09:53:17.937Z,46.83
2019-05-03T09:55:47.630Z,46.79
2019-05-03T09:58:17.223Z,49.18
2019-05-03T10:00:48.147Z,46.83
2019-05-03T10:03:17.721Z,49.14
2019-05-03T10:05:47.280Z,49.72
2019-05-03T10:08:16.988Z,47.38
2019-05-03T10:11:05.535Z,48.00
2019-05-03T10:13:35.700Z,49.76
2019-05-03T10:16:06.157Z,47.58
2019-05-03T10:18:36.309Z,47.06
2019-05-03T10:21:06.068Z,47.68
2019-05-03T10:23:39.834Z,46.65
2019-05-03T10:26:09.892Z,47.71
2019-05-03T10:28:41.465Z,46.74
2019-05-03T10:31:10.965Z,48.04
2019-05-03T10:33:59.763Z,48.83
2019-05-03T10:36:29.269Z,50.71
2019-05-03T10:38:58.907Z,47.86
2019-05-03T10:41:28.532Z,47.15
2019-05-03T10:43:58.199Z,47.02
2019-05-03T10:46:27.761Z,46.82
2019-05-03T10:48:57.367Z,45.95
2019-05-03T10:51:29.124Z,45.72
2019-05-03T10:54:00.015Z,46.09
2019-05-03T10:56:48.634Z,45.62
2019-05-03T10:59:19.439Z,46.91
2019-05-03T11:02:14.146Z,49.39
2019-05-03T11:04:46.139Z,46.44
2019-05-03T11:07:15.025Z,46.51
2019-05-03T11:09:49.774Z,48.22
2019-05-03T11:12:16.004Z,46.29
2019-05-03T11:14:45.699Z,46.64
2019-05-03T11:17:15.250Z,46.11
2019-05-03T11:19:45.406Z,46.51
2019-05-03T11:22:15.198Z,45.63
2019-05-03T11:24:45.444Z,45.25
2019-05-03T11:27:19.851Z,45.38
2019-05-03T11:29:50.320Z,45.43
2019-05-03T11:32:37.440Z,46.98
2019-05-03T11:35:20.284Z,47.80
2019-05-03T11:37:57.015Z,46.11
2019-05-03T11:40:26.684Z,45.09
2019-05-03T11:42:58.070Z,44.83
2019-05-03T11:45:27.728Z,44.76
2019-05-03T11:47:57.372Z,46.37
2019-05-03T11:50:26.983Z,47.57
2019-05-03T11:52:56.572Z,44.90
2019-05-03T11:55:38.731Z,44.30
2019-05-03T11:58:18.824Z,46.96
2019-05-03T12:00:51.802Z,44.08
2019-05-03T12:03:27.217Z,40.06
2019-05-03T12:05:58.735Z,44.55
2019-05-03T12:08:34.593Z,41.20
2019-05-03T12:11:05.747Z,42.33
2019-05-03T12:13:35.722Z,40.85
2019-05-03T12:16:17.837Z,37.77
2019-05-03T12:18:49.115Z,41.24
2019-05-03T12:21:10.130Z,41.92
2019-05-03T12:23:40.219Z,46.39
2019-05-03T12:26:13.437Z,44.93
2019-05-03T12:28:41.532Z,41.51
2019-05-03T12:31:25.475Z,42.89
2019-05-03T12:33:42.350Z,41.65
2019-05-03T12:36:11.934Z,41.40
2019-05-03T12:38:41.525Z,41.43
2019-05-03T12:41:11.439Z,41.87
2019-05-03T12:43:41.545Z,41.30
2019-05-03T12:46:11.134Z,40.63
2019-05-03T12:48:40.820Z,41.45
2019-05-03T12:51:10.946Z,41.66
2019-05-03T12:53:40.722Z,41.85
2019-05-03T12:56:12.966Z,42.19
2019-05-03T12:59:05.757Z,41.45
2019-05-03T13:01:45.413Z,41.65
2019-05-03T13:04:18.774Z,43.26
2019-05-03T13:06:54.961Z,42.54
2019-05-03T13:09:25.256Z,42.70
2019-05-03T13:11:59.105Z,41.93
2019-05-03T13:14:28.007Z,34.47
2019-05-03T13:16:57.510Z,38.42
2019-05-03T13:19:27.120Z,36.02
2019-05-03T13:21:56.757Z,37.53
2019-05-03T13:24:26.380Z,36.04
2019-05-03T13:26:55.871Z,39.79
2019-05-03T13:29:25.744Z,38.57
2019-05-03T13:32:01.651Z,40.18
2019-05-03T13:34:26.668Z,39.25
2019-05-03T13:36:56.233Z,40.14
2019-05-03T13:39:26.471Z,40.31
2019-05-03T13:41:56.271Z,38.98
2019-05-03T13:44:25.863Z,36.06
2019-05-03T13:46:55.371Z,36.22
2019-05-03T13:49:26.488Z,37.84
2019-05-03T13:51:56.131Z,38.33
2019-05-03T13:54:25.737Z,37.31
2019-05-03T13:56:55.377Z,39.29
2019-05-03T13:59:25.151Z,38.54
2019-05-03T14:01:55.010Z,37.92
2019-05-03T14:04:24.721Z,40.58
2019-05-03T14:06:55.213Z,39.71
2019-05-03T14:09:25.188Z,40.85
2019-05-03T14:11:55.293Z,41.06
2019-05-03T14:14:25.819Z,41.24
2019-05-03T14:16:55.534Z,41.48
2019-05-03T14:19:31.556Z,41.65
2019-05-03T14:22:02.709Z,39.88
2019-05-03T14:24:32.312Z,37.76
2019-05-03T14:27:02.440Z,40.40
2019-05-03T14:29:32.267Z,40.53
2019-05-03T14:32:01.764Z,40.27
2019-05-03T14:34:31.435Z,39.57
2019-05-03T14:37:00.993Z,41.42
2019-05-03T14:39:30.547Z,40.75
2019-05-03T14:42:00.153Z,40.27
2019-05-03T14:44:29.783Z,40.66
2019-05-03T14:46:59.400Z,41.88
2019-05-03T14:49:29.020Z,41.10
2019-05-03T14:51:58.489Z,41.70
2019-05-03T14:54:30.224Z,42.09
2019-05-03T14:57:31.003Z,40.78
2019-05-03T15:00:06.585Z,41.82
2019-05-03T15:02:47.470Z,42.00
2019-05-03T15:05:14.766Z,41.91
2019-05-03T15:07:45.854Z,40.11
2019-05-03T15:10:15.495Z,41.01
2019-05-03T15:12:45.346Z,40.21
2019-05-03T15:15:15.197Z,41.05
2019-05-03T15:17:45.786Z,38.88
2019-05-03T15:20:15.625Z,39.37
2019-05-03T15:22:45.543Z,42.28
2019-05-03T15:25:15.180Z,40.60
2019-05-03T15:27:44.958Z,42.25
2019-05-03T15:30:15.595Z,42.61
2019-05-03T15:32:57.047Z,42.85
2019-05-03T15:35:17.047Z,42.95
2019-05-03T15:37:46.669Z,42.67
2019-05-03T15:40:16.300Z,41.38
2019-05-03T15:42:51.664Z,40.34
2019-05-03T15:45:58.244Z,42.22
2019-05-03T15:48:29.855Z,42.94
2019-05-03T15:50:59.459Z,42.89
2019-05-03T15:53:29.002Z,42.87
2019-05-03T15:55:58.579Z,41.96
2019-05-03T15:58:28.219Z,40.26
2019-05-03T16:00:57.763Z,39.45
2019-05-03T16:03:27.477Z,37.67
2019-05-03T16:05:57.039Z,39.32
2019-05-03T16:08:26.680Z,39.38
2019-05-03T16:10:56.282Z,38.68
2019-05-03T16:13:25.946Z,42.36
2019-05-03T16:15:55.612Z,42.72
2019-05-03T16:18:25.170Z,42.90
2019-05-03T16:20:54.874Z,42.72
2019-05-03T16:23:24.987Z,42.63
2019-05-03T16:25:54.849Z,40.73
2019-05-03T16:28:36.453Z,41.72
2019-05-03T16:31:11.664Z,41.95
2019-05-03T16:33:41.471Z,39.81
2019-05-03T16:36:11.194Z,42.58
2019-05-03T16:38:40.783Z,43.10
2019-05-03T16:41:10.289Z,43.03
2019-05-03T16:43:39.876Z,41.83
2019-05-03T16:46:09.479Z,42.92
2019-05-03T16:48:39.008Z,43.06
2019-05-03T16:51:08.718Z,41.40
2019-05-03T16:53:38.655Z,42.86
2019-05-03T16:56:08.318Z,43.08
2019-05-03T16:58:37.896Z,43.16
2019-05-03T17:01:07.509Z,43.06
2019-05-03T17:03:45.686Z,43.09
2019-05-03T17:06:28.439Z,42.58
2019-05-03T17:09:22.550Z,42.99
2019-05-03T17:12:06.421Z,43.15
2019-05-03T17:14:36.068Z,42.98
2019-05-03T17:17:07.291Z,41.15
2019-05-03T17:19:37.061Z,43.18
2019-05-03T17:22:06.630Z,40.55
2019-05-03T17:24:36.300Z,43.08
2019-05-03T17:27:05.945Z,40.02
2019-05-03T17:29:35.452Z,41.86
2019-05-03T17:32:05.147Z,39.47
2019-05-03T17:34:34.833Z,41.13
2019-05-03T17:37:04.974Z,40.23
2019-05-03T17:40:11.967Z,39.82
2019-05-03T17:42:59.248Z,41.48
2019-05-03T17:45:35.070Z,42.34
2019-05-03T17:48:04.627Z,39.19
2019-05-03T17:50:34.834Z,39.71
2019-05-03T17:53:34.465Z,39.60
2019-05-03T17:56:09.976Z,41.07
2019-05-03T17:58:45.948Z,39.37
2019-05-03T18:01:37.393Z,42.26
2019-05-03T18:04:15.602Z,43.66
2019-05-03T18:06:58.421Z,41.78
2019-05-03T18:09:31.862Z,40.00
2019-05-03T18:12:04.582Z,40.06
2019-05-03T18:14:34.617Z,40.05
2019-05-03T18:17:05.773Z,40.25
2019-05-03T18:19:35.477Z,40.18
2019-05-03T18:22:05.364Z,40.28
2019-05-03T18:24:35.329Z,40.41
2019-05-03T18:27:05.082Z,40.47
2019-05-03T18:29:34.809Z,40.58
2019-05-03T18:32:05.480Z,40.45
2019-05-03T18:34:35.211Z,40.39
2019-05-03T18:37:04.942Z,40.28
2019-05-03T18:39:34.763Z,40.43
2019-05-03T18:42:06.784Z,41.11
2019-05-03T18:44:44.916Z,40.32
2019-05-03T18:47:18.101Z,40.47
2019-05-03T18:49:47.689Z,40.81
2019-05-03T18:52:17.487Z,40.21
2019-05-03T18:54:47.068Z,40.42
2019-05-03T18:57:16.720Z,40.33
2019-05-03T18:59:46.245Z,40.23
2019-05-03T19:02:15.806Z,40.39
2019-05-03T19:04:48.857Z,40.61
2019-05-03T19:07:29.918Z,40.92
2019-05-03T19:10:07.189Z,41.03
2019-05-03T19:12:45.042Z,41.19
2019-05-03T19:15:14.598Z,41.29
2019-05-03T19:17:50.070Z,41.41
2019-05-03T19:20:19.748Z,41.20
2019-05-03T19:22:49.300Z,41.43
2019-05-03T19:25:18.992Z,41.41
2019-05-03T19:27:48.555Z,41.28
2019-05-03T19:30:34.803Z,41.41
2019-05-03T19:33:05.789Z,41.42
2019-05-03T19:35:36.472Z,41.46
2019-05-03T19:38:06.042Z,41.55
2019-05-03T19:40:35.587Z,41.56
2019-05-03T19:43:06.118Z,41.65
2019-05-03T19:45:35.664Z,41.64
2019-05-03T19:48:09.737Z,41.84
2019-05-03T19:50:39.444Z,41.95
2019-05-03T19:53:23.156Z,42.05
2019-05-03T19:55:52.755Z,42.09
2019-05-03T19:58:22.243Z,42.14
2019-05-03T20:01:10.886Z,42.10
2019-05-03T20:03:54.561Z,41.89
2019-05-03T20:06:42.281Z,42.11
2019-05-03T20:09:15.114Z,42.20
2019-05-03T20:11:46.058Z,42.00
2019-05-03T20:14:15.831Z,42.93
2019-05-03T20:16:45.566Z,42.91
2019-05-03T20:19:20.899Z,41.91
2019-05-03T20:21:46.376Z,44.92
2019-05-03T20:24:15.994Z,44.20
2019-05-03T20:26:45.502Z,42.78
2019-05-03T20:29:15.205Z,42.13
2019-05-03T20:31:44.816Z,41.92
2019-05-03T20:34:15.839Z,41.74
2019-05-03T20:36:45.464Z,43.32
2019-05-03T20:39:15.225Z,41.89
2019-05-03T20:41:45.339Z,43.23
2019-05-03T20:44:44.805Z,41.69
2019-05-03T20:47:39.246Z,41.49
2019-05-03T20:50:15.639Z,41.27
2019-05-03T20:52:45.439Z,41.26
2019-05-03T20:55:15.595Z,41.37
2019-05-03T20:57:45.232Z,41.33
2019-05-03T21:00:17.079Z,41.71
2019-05-03T21:02:53.404Z,42.07
2019-05-03T21:05:27.138Z,42.77
2019-05-03T21:07:49.385Z,42.91
2019-05-03T21:10:18.999Z,43.15
2019-05-03T21:12:48.578Z,43.12
2019-05-03T21:15:29.665Z,43.45
2019-05-03T21:18:15.813Z,42.94
2019-05-03T21:20:59.552Z,42.78
2019-05-03T21:23:30.640Z,42.64
2019-05-03T21:26:09.052Z,42.89
2019-05-03T21:28:34.540Z,42.79
2019-05-03T21:31:05.607Z,42.77
2019-05-03T21:33:35.581Z,42.92
2019-05-03T21:36:05.183Z,43.31
2019-05-03T21:38:35.495Z,43.48
2019-05-03T21:41:05.433Z,43.68
2019-05-03T21:43:35.076Z,44.75
2019-05-03T21:46:10.322Z,45.80
2019-05-03T21:48:50.731Z,46.04
2019-05-03T21:51:20.330Z,45.62
2019-05-03T21:53:49.926Z,45.70
2019-05-03T21:56:19.477Z,46.39
2019-05-03T21:58:49.172Z,46.19
2019-05-03T22:01:18.841Z,46.82
2019-05-03T22:03:48.539Z,47.12
2019-05-03T22:06:18.159Z,46.99
2019-05-03T22:08:47.835Z,46.65
2019-05-03T22:11:17.437Z,46.72
2019-05-03T22:13:48.712Z,47.47
2019-05-03T22:16:35.723Z,47.41
2019-05-03T22:19:05.347Z,47.69
2019-05-03T22:21:45.260Z,47.99
2019-05-03T22:24:27.869Z,48.32
2019-05-03T22:27:10.337Z,48.43
2019-05-03T22:29:39.926Z,48.23
2019-05-03T22:32:09.425Z,47.21
2019-05-03T22:34:39.053Z,48.09
2019-05-03T22:37:08.622Z,48.01
2019-05-03T22:39:38.253Z,48.59
2019-05-03T22:42:07.862Z,48.05
2019-05-03T22:44:37.596Z,48.32
2019-05-03T22:47:07.225Z,49.64
2019-05-03T22:49:37.304Z,50.02
2019-05-03T22:52:07.129Z,50.02
2019-05-03T22:54:36.641Z,49.15
2019-05-03T22:57:06.156Z,47.93
2019-05-03T22:59:35.876Z,48.05
2019-05-03T23:02:05.554Z,48.18
2019-05-03T23:04:35.565Z,48.32
2019-05-03T23:07:05.621Z,47.95
2019-05-03T23:09:35.382Z,48.34
2019-05-03T23:12:05.544Z,48.94
2019-05-03T23:14:35.067Z,48.43
2019-05-03T23:17:04.803Z,48.16
2019-05-03T23:19:35.980Z,47.89
2019-05-03T23:22:16.148Z,47.76
2019-05-03T23:24:45.696Z,47.78
2019-05-03T23:27:15.317Z,47.90
2019-05-03T23:29:45.402Z,47.99
2019-05-03T23:32:15.283Z,47.81
2019-05-03T23:34:46.391Z,47.78
2019-05-03T23:37:16.085Z,47.83
2019-05-03T23:39:45.625Z,47.58
2019-05-03T23:42:15.541Z,47.94
2019-05-03T23:44:45.736Z,47.47
2019-05-03T23:47:40.238Z,47.52
2019-05-03T23:50:12.120Z,50.55
2019-05-03T23:52:41.615Z,50.10
2019-05-03T23:55:36.213Z,49.45
2019-05-03T23:58:05.777Z,49.32
